sensor_id;sensor_type;location;lat;lon;timestamp;temperature;humidity
9881;DHT22;4979;51.014;6.678;2023-11-19T00:01:26;11.90;99.90
9881;DHT22;4979;51.014;6.678;2023-11-19T00:03:52;11.80;99.90
9881;DHT22;4979;51.014;6.678;2023-11-19T00:06:18;11.90;99.90
9881;DHT22;4979;51.014;6.678;2023-11-19T00:08:44;12.00;99.90
9881;DHT22;4979;51.014;6.678;2023-11-19T00:11:10;11.90;99.90
9881;DHT22;4979;51.014;6.678;2023-11-19T00:13:36;12.10;99.90
9881;DHT22;4979;51.014;6.678;2023-11-19T00:16:02;12.10;99.90
9881;DHT22;4979;51.014;6.678;2023-11-19T00:18:29;12.10;99.90
9881;DHT22;4979;51.014;6.678;2023-11-19T00:20:55;12.00;99.90
9881;DHT22;4979;51.014;6.678;2023-11-19T00:23:20;12.00;99.90
9881;DHT22;4979;51.014;6.678;2023-11-19T00:25:46;12.10;99.90
9881;DHT22;4979;51.014;6.678;2023-11-19T00:28:13;12.10;99.90
9881;DHT22;4979;51.014;6.678;2023-11-19T00:30:38;12.10;99.90
9881;DHT22;4979;51.014;6.678;2023-11-19T00:33:06;12.10;99.90
9881;DHT22;4979;51.014;6.678;2023-11-19T00:35:31;12.10;99.90
9881;DHT22;4979;51.014;6.678;2023-11-19T00:37:57;12.20;99.90
9881;DHT22;4979;51.014;6.678;2023-11-19T00:40:23;12.20;99.90
9881;DHT22;4979;51.014;6.678;2023-11-19T00:42:49;12.20;99.90
9881;DHT22;4979;51.014;6.678;2023-11-19T00:45:15;12.20;99.90
9881;DHT22;4979;51.014;6.678;2023-11-19T00:47:41;12.20;99.90
9881;DHT22;4979;51.014;6.678;2023-11-19T00:50:07;12.20;99.90
9881;DHT22;4979;51.014;6.678;2023-11-19T00:52:37;12.10;99.90
9881;DHT22;4979;51.014;6.678;2023-11-19T00:55:03;12.10;99.90
9881;DHT22;4979;51.014;6.678;2023-11-19T00:57:30;12.10;99.90
9881;DHT22;4979;51.014;6.678;2023-11-19T00:59:57;12.10;99.90
9881;DHT22;4979;51.014;6.678;2023-11-19T01:02:24;12.10;99.90
9881;DHT22;4979;51.014;6.678;2023-11-19T01:04:50;12.30;99.90
9881;DHT22;4979;51.014;6.678;2023-11-19T01:07:16;12.20;99.90
9881;DHT22;4979;51.014;6.678;2023-11-19T01:09:42;12.30;99.90
9881;DHT22;4979;51.014;6.678;2023-11-19T01:12:08;12.30;99.90
9881;DHT22;4979;51.014;6.678;2023-11-19T01:14:34;12.30;99.90
9881;DHT22;4979;51.014;6.678;2023-11-19T01:17:01;12.30;99.90
9881;DHT22;4979;51.014;6.678;2023-11-19T01:19:27;12.20;99.90
9881;DHT22;4979;51.014;6.678;2023-11-19T01:21:54;12.30;99.90
9881;DHT22;4979;51.014;6.678;2023-11-19T01:24:20;12.20;99.90
9881;DHT22;4979;51.014;6.678;2023-11-19T01:26:46;12.10;99.90
9881;DHT22;4979;51.014;6.678;2023-11-19T01:29:14;12.20;99.90
9881;DHT22;4979;51.014;6.678;2023-11-19T01:31:45;12.20;99.90
9881;DHT22;4979;51.014;6.678;2023-11-19T01:34:12;12.20;99.90
9881;DHT22;4979;51.014;6.678;2023-11-19T01:36:38;12.30;99.90
9881;DHT22;4979;51.014;6.678;2023-11-19T01:39:04;12.30;99.90
9881;DHT22;4979;51.014;6.678;2023-11-19T01:41:34;12.40;99.90
9881;DHT22;4979;51.014;6.678;2023-11-19T01:44:00;12.40;99.90
9881;DHT22;4979;51.014;6.678;2023-11-19T01:46:26;12.40;99.90
9881;DHT22;4979;51.014;6.678;2023-11-19T01:48:52;12.40;99.90
9881;DHT22;4979;51.014;6.678;2023-11-19T01:51:19;12.40;99.90
9881;DHT22;4979;51.014;6.678;2023-11-19T01:53:47;12.40;99.90
9881;DHT22;4979;51.014;6.678;2023-11-19T01:56:15;12.30;99.90
9881;DHT22;4979;51.014;6.678;2023-11-19T01:58:42;12.30;99.90
9881;DHT22;4979;51.014;6.678;2023-11-19T02:01:09;12.50;99.90
9881;DHT22;4979;51.014;6.678;2023-11-19T02:03:36;12.50;99.90
9881;DHT22;4979;51.014;6.678;2023-11-19T02:06:03;12.40;99.90
9881;DHT22;4979;51.014;6.678;2023-11-19T02:08:29;12.30;99.90
9881;DHT22;4979;51.014;6.678;2023-11-19T02:10:55;12.50;99.90
9881;DHT22;4979;51.014;6.678;2023-11-19T02:13:26;12.50;99.90
9881;DHT22;4979;51.014;6.678;2023-11-19T02:15:52;12.40;99.90
9881;DHT22;4979;51.014;6.678;2023-11-19T02:18:27;12.50;99.90
9881;DHT22;4979;51.014;6.678;2023-11-19T02:20:57;12.40;99.90
9881;DHT22;4979;51.014;6.678;2023-11-19T02:23:24;12.50;99.90
9881;DHT22;4979;51.014;6.678;2023-11-19T02:26:14;12.40;99.90
9881;DHT22;4979;51.014;6.678;2023-11-19T02:28:42;12.40;99.90
9881;DHT22;4979;51.014;6.678;2023-11-19T02:31:08;12.50;99.90
9881;DHT22;4979;51.014;6.678;2023-11-19T02:33:35;12.40;99.90
9881;DHT22;4979;51.014;6.678;2023-11-19T02:36:02;12.50;99.90
9881;DHT22;4979;51.014;6.678;2023-11-19T02:38:29;12.40;99.90
9881;DHT22;4979;51.014;6.678;2023-11-19T02:40:56;12.40;99.90
9881;DHT22;4979;51.014;6.678;2023-11-19T02:43:22;12.50;99.90
9881;DHT22;4979;51.014;6.678;2023-11-19T02:45:48;12.50;99.90
9881;DHT22;4979;51.014;6.678;2023-11-19T02:48:13;12.40;99.90
9881;DHT22;4979;51.014;6.678;2023-11-19T02:50:41;12.50;99.90
9881;DHT22;4979;51.014;6.678;2023-11-19T02:53:07;12.50;99.90
9881;DHT22;4979;51.014;6.678;2023-11-19T02:55:32;12.50;99.90
9881;DHT22;4979;51.014;6.678;2023-11-19T02:58:03;12.40;99.90
9881;DHT22;4979;51.014;6.678;2023-11-19T03:00:34;12.50;99.90
9881;DHT22;4979;51.014;6.678;2023-11-19T03:03:03;12.40;99.90
9881;DHT22;4979;51.014;6.678;2023-11-19T03:05:43;12.40;99.90
9881;DHT22;4979;51.014;6.678;2023-11-19T03:08:10;12.50;99.90
9881;DHT22;4979;51.014;6.678;2023-11-19T03:10:35;12.50;99.90
9881;DHT22;4979;51.014;6.678;2023-11-19T03:13:01;12.50;99.90
9881;DHT22;4979;51.014;6.678;2023-11-19T03:15:27;12.50;99.90
9881;DHT22;4979;51.014;6.678;2023-11-19T03:17:53;12.50;99.90
9881;DHT22;4979;51.014;6.678;2023-11-19T03:20:19;12.50;99.90
9881;DHT22;4979;51.014;6.678;2023-11-19T03:22:46;12.60;99.90
9881;DHT22;4979;51.014;6.678;2023-11-19T03:25:11;12.60;99.90
9881;DHT22;4979;51.014;6.678;2023-11-19T03:27:39;12.60;99.90
9881;DHT22;4979;51.014;6.678;2023-11-19T03:30:08;12.60;99.90
9881;DHT22;4979;51.014;6.678;2023-11-19T03:32:35;12.60;99.90
9881;DHT22;4979;51.014;6.678;2023-11-19T03:35:01;12.70;99.90
9881;DHT22;4979;51.014;6.678;2023-11-19T03:37:27;12.70;99.90
9881;DHT22;4979;51.014;6.678;2023-11-19T03:39:57;12.70;99.90
9881;DHT22;4979;51.014;6.678;2023-11-19T03:42:28;12.60;99.90
9881;DHT22;4979;51.014;6.678;2023-11-19T03:44:56;12.50;99.90
9881;DHT22;4979;51.014;6.678;2023-11-19T03:47:21;12.60;99.90
9881;DHT22;4979;51.014;6.678;2023-11-19T03:49:51;12.50;99.90
9881;DHT22;4979;51.014;6.678;2023-11-19T03:52:17;12.60;99.90
9881;DHT22;4979;51.014;6.678;2023-11-19T03:54:43;12.60;99.90
9881;DHT22;4979;51.014;6.678;2023-11-19T03:57:09;12.50;99.90
9881;DHT22;4979;51.014;6.678;2023-11-19T03:59:36;12.50;99.90
9881;DHT22;4979;51.014;6.678;2023-11-19T04:02:02;12.40;99.90
9881;DHT22;4979;51.014;6.678;2023-11-19T04:04:28;12.40;99.90
9881;DHT22;4979;51.014;6.678;2023-11-19T04:06:55;12.40;99.90
9881;DHT22;4979;51.014;6.678;2023-11-19T04:09:21;12.40;99.90
9881;DHT22;4979;51.014;6.678;2023-11-19T04:11:46;12.30;99.90
9881;DHT22;4979;51.014;6.678;2023-11-19T04:14:13;12.30;99.90
9881;DHT22;4979;51.014;6.678;2023-11-19T04:16:39;12.40;99.90
9881;DHT22;4979;51.014;6.678;2023-11-19T04:19:04;12.40;99.90
9881;DHT22;4979;51.014;6.678;2023-11-19T04:21:30;12.20;99.90
9881;DHT22;4979;51.014;6.678;2023-11-19T04:23:56;12.20;99.90
9881;DHT22;4979;51.014;6.678;2023-11-19T04:26:21;12.20;99.90
9881;DHT22;4979;51.014;6.678;2023-11-19T04:28:47;12.20;99.90
9881;DHT22;4979;51.014;6.678;2023-11-19T04:31:15;12.10;99.90
9881;DHT22;4979;51.014;6.678;2023-11-19T04:33:41;12.10;99.90
9881;DHT22;4979;51.014;6.678;2023-11-19T04:36:07;12.20;99.90
9881;DHT22;4979;51.014;6.678;2023-11-19T04:38:33;14.00;99.90
9881;DHT22;4979;51.014;6.678;2023-11-19T04:40:58;12.20;99.90
9881;DHT22;4979;51.014;6.678;2023-11-19T04:43:24;12.20;99.90
9881;DHT22;4979;51.014;6.678;2023-11-19T04:45:50;12.10;99.90
9881;DHT22;4979;51.014;6.678;2023-11-19T04:48:15;12.10;99.90
9881;DHT22;4979;51.014;6.678;2023-11-19T04:50:41;12.20;99.90
9881;DHT22;4979;51.014;6.678;2023-11-19T04:53:06;12.20;99.90
9881;DHT22;4979;51.014;6.678;2023-11-19T04:55:32;12.10;99.90
9881;DHT22;4979;51.014;6.678;2023-11-19T04:57:57;12.20;99.90
9881;DHT22;4979;51.014;6.678;2023-11-19T05:00:23;12.20;99.90
9881;DHT22;4979;51.014;6.678;2023-11-19T05:02:48;12.30;99.90
9881;DHT22;4979;51.014;6.678;2023-11-19T05:05:16;12.30;99.90
9881;DHT22;4979;51.014;6.678;2023-11-19T05:07:41;12.20;99.90
9881;DHT22;4979;51.014;6.678;2023-11-19T05:10:07;12.20;99.90
9881;DHT22;4979;51.014;6.678;2023-11-19T05:12:33;12.20;99.90
9881;DHT22;4979;51.014;6.678;2023-11-19T05:14:59;12.30;99.90
9881;DHT22;4979;51.014;6.678;2023-11-19T05:17:25;12.20;99.90
9881;DHT22;4979;51.014;6.678;2023-11-19T05:19:51;12.10;99.90
9881;DHT22;4979;51.014;6.678;2023-11-19T05:22:17;12.20;99.90
9881;DHT22;4979;51.014;6.678;2023-11-19T05:24:42;12.10;99.90
9881;DHT22;4979;51.014;6.678;2023-11-19T05:27:09;12.20;99.90
9881;DHT22;4979;51.014;6.678;2023-11-19T05:29:36;12.10;99.90
9881;DHT22;4979;51.014;6.678;2023-11-19T05:32:04;12.00;99.90
9881;DHT22;4979;51.014;6.678;2023-11-19T05:34:30;12.00;99.90
9881;DHT22;4979;51.014;6.678;2023-11-19T05:36:56;12.00;99.90
9881;DHT22;4979;51.014;6.678;2023-11-19T05:39:22;12.00;99.90
9881;DHT22;4979;51.014;6.678;2023-11-19T05:41:48;12.00;99.90
9881;DHT22;4979;51.014;6.678;2023-11-19T05:44:13;12.00;99.90
9881;DHT22;4979;51.014;6.678;2023-11-19T05:46:39;11.90;99.90
9881;DHT22;4979;51.014;6.678;2023-11-19T05:49:08;12.00;99.90
9881;DHT22;4979;51.014;6.678;2023-11-19T05:51:37;11.90;99.90
9881;DHT22;4979;51.014;6.678;2023-11-19T05:54:04;11.80;99.90
9881;DHT22;4979;51.014;6.678;2023-11-19T05:56:30;11.80;99.90
9881;DHT22;4979;51.014;6.678;2023-11-19T05:58:58;11.80;99.90
9881;DHT22;4979;51.014;6.678;2023-11-19T06:01:25;11.70;99.90
9881;DHT22;4979;51.014;6.678;2023-11-19T06:03:52;11.80;99.90
9881;DHT22;4979;51.014;6.678;2023-11-19T06:06:17;11.80;99.90
9881;DHT22;4979;51.014;6.678;2023-11-19T06:08:43;11.80;99.90
9881;DHT22;4979;51.014;6.678;2023-11-19T06:11:10;11.90;99.90
9881;DHT22;4979;51.014;6.678;2023-11-19T06:13:40;11.80;99.90
9881;DHT22;4979;51.014;6.678;2023-11-19T06:16:06;11.80;99.90
9881;DHT22;4979;51.014;6.678;2023-11-19T06:18:32;11.70;99.90
9881;DHT22;4979;51.014;6.678;2023-11-19T06:20:57;11.80;99.90
9881;DHT22;4979;51.014;6.678;2023-11-19T06:23:23;11.70;99.90
9881;DHT22;4979;51.014;6.678;2023-11-19T06:25:48;11.80;99.90
9881;DHT22;4979;51.014;6.678;2023-11-19T06:28:14;11.80;99.90
9881;DHT22;4979;51.014;6.678;2023-11-19T06:30:40;11.80;99.90
9881;DHT22;4979;51.014;6.678;2023-11-19T06:33:06;11.70;99.90
9881;DHT22;4979;51.014;6.678;2023-11-19T06:35:32;11.70;99.90
9881;DHT22;4979;51.014;6.678;2023-11-19T06:38:02;11.70;99.90
9881;DHT22;4979;51.014;6.678;2023-11-19T06:40:30;11.70;99.90
9881;DHT22;4979;51.014;6.678;2023-11-19T06:42:55;11.70;99.90
9881;DHT22;4979;51.014;6.678;2023-11-19T06:45:21;11.60;99.90
9881;DHT22;4979;51.014;6.678;2023-11-19T06:47:47;11.70;99.90
9881;DHT22;4979;51.014;6.678;2023-11-19T06:50:12;11.60;99.90
9881;DHT22;4979;51.014;6.678;2023-11-19T06:52:38;11.60;99.90
9881;DHT22;4979;51.014;6.678;2023-11-19T06:55:04;11.60;99.90
9881;DHT22;4979;51.014;6.678;2023-11-19T06:57:30;11.60;99.90
9881;DHT22;4979;51.014;6.678;2023-11-19T06:59:58;11.60;99.90
9881;DHT22;4979;51.014;6.678;2023-11-19T07:02:24;11.60;99.90
9881;DHT22;4979;51.014;6.678;2023-11-19T07:04:50;11.50;99.90
9881;DHT22;4979;51.014;6.678;2023-11-19T07:07:16;11.60;99.90
9881;DHT22;4979;51.014;6.678;2023-11-19T07:09:42;11.60;99.90
9881;DHT22;4979;51.014;6.678;2023-11-19T07:12:08;11.50;99.90
9881;DHT22;4979;51.014;6.678;2023-11-19T07:14:33;11.50;99.90
9881;DHT22;4979;51.014;6.678;2023-11-19T07:16:59;11.40;99.90
9881;DHT22;4979;51.014;6.678;2023-11-19T07:19:25;11.40;99.90
9881;DHT22;4979;51.014;6.678;2023-11-19T07:21:51;11.40;99.90
9881;DHT22;4979;51.014;6.678;2023-11-19T07:24:19;11.30;99.90
9881;DHT22;4979;51.014;6.678;2023-11-19T07:26:46;11.40;99.90
9881;DHT22;4979;51.014;6.678;2023-11-19T07:29:13;11.40;99.90
9881;DHT22;4979;51.014;6.678;2023-11-19T07:31:38;11.40;99.90
9881;DHT22;4979;51.014;6.678;2023-11-19T07:34:04;11.40;99.90
9881;DHT22;4979;51.014;6.678;2023-11-19T07:36:31;11.50;99.90
9881;DHT22;4979;51.014;6.678;2023-11-19T07:38:58;11.40;99.90
9881;DHT22;4979;51.014;6.678;2023-11-19T07:41:23;11.50;99.90
9881;DHT22;4979;51.014;6.678;2023-11-19T07:43:50;11.50;99.90
9881;DHT22;4979;51.014;6.678;2023-11-19T07:46:17;11.60;99.90
9881;DHT22;4979;51.014;6.678;2023-11-19T07:48:45;11.50;99.90
9881;DHT22;4979;51.014;6.678;2023-11-19T07:51:12;11.70;99.90
9881;DHT22;4979;51.014;6.678;2023-11-19T07:53:38;11.70;99.90
9881;DHT22;4979;51.014;6.678;2023-11-19T07:56:07;11.70;99.90
9881;DHT22;4979;51.014;6.678;2023-11-19T07:58:33;11.70;99.90
9881;DHT22;4979;51.014;6.678;2023-11-19T08:00:58;11.70;99.90
9881;DHT22;4979;51.014;6.678;2023-11-19T08:03:24;11.70;99.90
9881;DHT22;4979;51.014;6.678;2023-11-19T08:05:49;11.70;99.90
9881;DHT22;4979;51.014;6.678;2023-11-19T08:08:16;11.80;99.90
9881;DHT22;4979;51.014;6.678;2023-11-19T08:10:42;11.80;99.90
9881;DHT22;4979;51.014;6.678;2023-11-19T08:13:08;11.90;99.90
9881;DHT22;4979;51.014;6.678;2023-11-19T08:15:34;11.90;99.90
9881;DHT22;4979;51.014;6.678;2023-11-19T08:17:59;12.00;99.90
9881;DHT22;4979;51.014;6.678;2023-11-19T08:20:25;12.10;99.90
9881;DHT22;4979;51.014;6.678;2023-11-19T08:22:51;12.10;99.90
9881;DHT22;4979;51.014;6.678;2023-11-19T08:25:16;12.10;99.90
9881;DHT22;4979;51.014;6.678;2023-11-19T08:27:42;12.10;99.90
9881;DHT22;4979;51.014;6.678;2023-11-19T08:30:08;12.10;99.90
9881;DHT22;4979;51.014;6.678;2023-11-19T08:32:34;12.20;99.90
9881;DHT22;4979;51.014;6.678;2023-11-19T08:35:00;12.20;99.90
9881;DHT22;4979;51.014;6.678;2023-11-19T08:37:26;12.30;99.90
9881;DHT22;4979;51.014;6.678;2023-11-19T08:39:52;12.30;99.90
9881;DHT22;4979;51.014;6.678;2023-11-19T08:42:18;12.30;99.90
9881;DHT22;4979;51.014;6.678;2023-11-19T08:44:44;12.30;99.90
9881;DHT22;4979;51.014;6.678;2023-11-19T08:47:15;12.40;99.90
9881;DHT22;4979;51.014;6.678;2023-11-19T08:49:43;12.40;99.90
9881;DHT22;4979;51.014;6.678;2023-11-19T08:52:09;12.40;99.90
9881;DHT22;4979;51.014;6.678;2023-11-19T08:54:36;12.40;99.90
9881;DHT22;4979;51.014;6.678;2023-11-19T08:57:01;12.50;99.90
9881;DHT22;4979;51.014;6.678;2023-11-19T08:59:28;12.50;99.90
9881;DHT22;4979;51.014;6.678;2023-11-19T09:01:54;12.60;99.90
9881;DHT22;4979;51.014;6.678;2023-11-19T09:04:20;12.60;99.90
9881;DHT22;4979;51.014;6.678;2023-11-19T09:06:47;12.60;99.90
9881;DHT22;4979;51.014;6.678;2023-11-19T09:09:13;12.60;99.90
9881;DHT22;4979;51.014;6.678;2023-11-19T09:11:39;12.60;99.90
9881;DHT22;4979;51.014;6.678;2023-11-19T09:14:05;12.70;99.90
9881;DHT22;4979;51.014;6.678;2023-11-19T09:16:31;12.70;99.90
9881;DHT22;4979;51.014;6.678;2023-11-19T09:18:56;12.70;99.90
9881;DHT22;4979;51.014;6.678;2023-11-19T09:21:23;12.70;99.90
9881;DHT22;4979;51.014;6.678;2023-11-19T09:23:49;12.70;99.90
9881;DHT22;4979;51.014;6.678;2023-11-19T09:26:15;12.80;99.90
9881;DHT22;4979;51.014;6.678;2023-11-19T09:28:41;12.80;99.90
9881;DHT22;4979;51.014;6.678;2023-11-19T09:31:16;12.90;99.90
9881;DHT22;4979;51.014;6.678;2023-11-19T09:33:42;13.00;99.90
9881;DHT22;4979;51.014;6.678;2023-11-19T09:36:08;13.10;99.90
9881;DHT22;4979;51.014;6.678;2023-11-19T09:38:34;13.00;99.90
9881;DHT22;4979;51.014;6.678;2023-11-19T09:41:05;12.90;99.90
9881;DHT22;4979;51.014;6.678;2023-11-19T09:43:34;12.90;99.90
9881;DHT22;4979;51.014;6.678;2023-11-19T09:46:06;12.90;99.90
9881;DHT22;4979;51.014;6.678;2023-11-19T09:48:36;12.80;99.90
9881;DHT22;4979;51.014;6.678;2023-11-19T09:51:06;12.80;99.90
9881;DHT22;4979;51.014;6.678;2023-11-19T09:53:32;12.70;99.90
9881;DHT22;4979;51.014;6.678;2023-11-19T09:56:00;13.00;99.90
9881;DHT22;4979;51.014;6.678;2023-11-19T09:58:30;13.00;99.90
9881;DHT22;4979;51.014;6.678;2023-11-19T10:01:01;13.00;99.90
9881;DHT22;4979;51.014;6.678;2023-11-19T10:03:35;13.00;99.90
9881;DHT22;4979;51.014;6.678;2023-11-19T10:06:03;13.10;99.90
9881;DHT22;4979;51.014;6.678;2023-11-19T10:08:29;13.10;99.90
9881;DHT22;4979;51.014;6.678;2023-11-19T10:10:55;13.20;99.90
9881;DHT22;4979;51.014;6.678;2023-11-19T10:13:26;13.20;99.90
9881;DHT22;4979;51.014;6.678;2023-11-19T10:15:52;13.20;99.90
9881;DHT22;4979;51.014;6.678;2023-11-19T10:18:18;13.10;99.90
9881;DHT22;4979;51.014;6.678;2023-11-19T10:20:44;13.00;99.90
9881;DHT22;4979;51.014;6.678;2023-11-19T10:23:10;12.90;99.90
9881;DHT22;4979;51.014;6.678;2023-11-19T10:25:36;12.90;99.90
9881;DHT22;4979;51.014;6.678;2023-11-19T10:28:02;12.90;99.90
9881;DHT22;4979;51.014;6.678;2023-11-19T10:30:29;12.90;99.90
9881;DHT22;4979;51.014;6.678;2023-11-19T10:33:09;12.90;99.90
9881;DHT22;4979;51.014;6.678;2023-11-19T10:35:50;12.90;99.90
9881;DHT22;4979;51.014;6.678;2023-11-19T10:38:17;13.10;99.90
9881;DHT22;4979;51.014;6.678;2023-11-19T10:40:42;13.00;99.90
9881;DHT22;4979;51.014;6.678;2023-11-19T10:43:08;13.00;99.90
9881;DHT22;4979;51.014;6.678;2023-11-19T10:45:39;13.00;99.90
9881;DHT22;4979;51.014;6.678;2023-11-19T10:48:05;13.00;99.90
9881;DHT22;4979;51.014;6.678;2023-11-19T10:50:33;13.00;99.90
9881;DHT22;4979;51.014;6.678;2023-11-19T10:52:59;13.10;99.90
9881;DHT22;4979;51.014;6.678;2023-11-19T10:55:29;13.00;99.90
9881;DHT22;4979;51.014;6.678;2023-11-19T10:58:03;13.10;99.90
9881;DHT22;4979;51.014;6.678;2023-11-19T11:03:25;13.00;99.90
9881;DHT22;4979;51.014;6.678;2023-11-19T11:05:56;13.00;99.90
9881;DHT22;4979;51.014;6.678;2023-11-19T11:08:21;12.90;99.90
9881;DHT22;4979;51.014;6.678;2023-11-19T11:10:55;13.00;99.90
9881;DHT22;4979;51.014;6.678;2023-11-19T11:13:23;13.10;99.90
9881;DHT22;4979;51.014;6.678;2023-11-19T11:15:58;13.30;99.90
9881;DHT22;4979;51.014;6.678;2023-11-19T11:18:24;13.40;99.90
9881;DHT22;4979;51.014;6.678;2023-11-19T11:21:11;13.40;99.90
9881;DHT22;4979;51.014;6.678;2023-11-19T11:27:02;13.10;99.90
9881;DHT22;4979;51.014;6.678;2023-11-19T11:32:34;13.30;99.90
9881;DHT22;4979;51.014;6.678;2023-11-19T11:38:09;13.50;99.90
9881;DHT22;4979;51.014;6.678;2023-11-19T11:40:34;13.60;99.90
9881;DHT22;4979;51.014;6.678;2023-11-19T11:43:01;13.60;99.90
9881;DHT22;4979;51.014;6.678;2023-11-19T11:45:39;13.70;99.90
9881;DHT22;4979;51.014;6.678;2023-11-19T11:48:10;13.60;99.90
9881;DHT22;4979;51.014;6.678;2023-11-19T11:50:50;13.50;99.90
9881;DHT22;4979;51.014;6.678;2023-11-19T11:53:17;13.40;99.90
9881;DHT22;4979;51.014;6.678;2023-11-19T11:58:21;13.40;99.90
9881;DHT22;4979;51.014;6.678;2023-11-19T12:00:48;13.50;99.90
9881;DHT22;4979;51.014;6.678;2023-11-19T12:03:14;13.50;99.90
9881;DHT22;4979;51.014;6.678;2023-11-19T12:05:47;13.50;99.90
9881;DHT22;4979;51.014;6.678;2023-11-19T12:08:14;13.60;99.90
9881;DHT22;4979;51.014;6.678;2023-11-19T12:10:50;13.60;99.90
9881;DHT22;4979;51.014;6.678;2023-11-19T12:13:17;13.60;99.90
9881;DHT22;4979;51.014;6.678;2023-11-19T12:18:27;13.40;99.90
9881;DHT22;4979;51.014;6.678;2023-11-19T12:20:53;13.40;99.90
9881;DHT22;4979;51.014;6.678;2023-11-19T12:23:18;13.40;99.90
9881;DHT22;4979;51.014;6.678;2023-11-19T12:25:44;13.50;99.90
9881;DHT22;4979;51.014;6.678;2023-11-19T12:28:15;13.50;99.90
9881;DHT22;4979;51.014;6.678;2023-11-19T12:30:42;13.50;99.90
9881;DHT22;4979;51.014;6.678;2023-11-19T12:33:09;13.90;99.90
9881;DHT22;4979;51.014;6.678;2023-11-19T12:35:46;13.50;99.90
9881;DHT22;4979;51.014;6.678;2023-11-19T12:38:22;13.50;99.90
9881;DHT22;4979;51.014;6.678;2023-11-19T12:41:05;13.50;99.90
9881;DHT22;4979;51.014;6.678;2023-11-19T12:43:31;13.50;99.90
9881;DHT22;4979;51.014;6.678;2023-11-19T12:45:57;13.50;99.90
9881;DHT22;4979;51.014;6.678;2023-11-19T12:48:23;13.50;99.90
9881;DHT22;4979;51.014;6.678;2023-11-19T12:50:58;13.50;99.90
9881;DHT22;4979;51.014;6.678;2023-11-19T12:53:26;13.40;99.90
9881;DHT22;4979;51.014;6.678;2023-11-19T12:55:53;13.40;99.90
9881;DHT22;4979;51.014;6.678;2023-11-19T12:58:34;13.30;99.90
9881;DHT22;4979;51.014;6.678;2023-11-19T13:01:09;13.20;99.90
9881;DHT22;4979;51.014;6.678;2023-11-19T13:03:38;13.20;99.90
9881;DHT22;4979;51.014;6.678;2023-11-19T13:06:10;13.20;99.90
9881;DHT22;4979;51.014;6.678;2023-11-19T13:08:50;13.20;99.90
9881;DHT22;4979;51.014;6.678;2023-11-19T13:11:38;13.20;99.90
9881;DHT22;4979;51.014;6.678;2023-11-19T13:14:06;13.20;99.90
9881;DHT22;4979;51.014;6.678;2023-11-19T13:16:35;13.20;99.90
9881;DHT22;4979;51.014;6.678;2023-11-19T13:19:01;13.10;99.90
9881;DHT22;4979;51.014;6.678;2023-11-19T13:21:28;13.10;99.90
9881;DHT22;4979;51.014;6.678;2023-11-19T13:23:55;13.10;99.90
9881;DHT22;4979;51.014;6.678;2023-11-19T13:26:20;13.10;99.90
9881;DHT22;4979;51.014;6.678;2023-11-19T13:28:46;13.10;99.90
9881;DHT22;4979;51.014;6.678;2023-11-19T13:31:12;13.10;99.90
9881;DHT22;4979;51.014;6.678;2023-11-19T13:33:37;13.20;99.90
9881;DHT22;4979;51.014;6.678;2023-11-19T13:36:04;13.20;99.90
9881;DHT22;4979;51.014;6.678;2023-11-19T13:38:34;13.20;99.90
9881;DHT22;4979;51.014;6.678;2023-11-19T13:41:05;13.30;99.90
9881;DHT22;4979;51.014;6.678;2023-11-19T13:43:31;13.30;99.90
9881;DHT22;4979;51.014;6.678;2023-11-19T13:45:57;13.30;99.90
9881;DHT22;4979;51.014;6.678;2023-11-19T13:48:26;13.40;99.90
9881;DHT22;4979;51.014;6.678;2023-11-19T13:50:55;13.40;99.90
9881;DHT22;4979;51.014;6.678;2023-11-19T13:53:21;13.40;99.90
9881;DHT22;4979;51.014;6.678;2023-11-19T13:55:46;13.40;99.90
9881;DHT22;4979;51.014;6.678;2023-11-19T13:58:12;13.30;99.90
9881;DHT22;4979;51.014;6.678;2023-11-19T14:00:38;13.30;99.90
9881;DHT22;4979;51.014;6.678;2023-11-19T14:03:04;13.20;99.90
9881;DHT22;4979;51.014;6.678;2023-11-19T14:05:29;13.20;99.90
9881;DHT22;4979;51.014;6.678;2023-11-19T14:07:55;13.20;99.90
9881;DHT22;4979;51.014;6.678;2023-11-19T14:10:22;13.20;99.90
9881;DHT22;4979;51.014;6.678;2023-11-19T14:12:48;13.20;99.90
9881;DHT22;4979;51.014;6.678;2023-11-19T14:15:15;13.10;99.90
9881;DHT22;4979;51.014;6.678;2023-11-19T14:17:43;13.10;99.90
9881;DHT22;4979;51.014;6.678;2023-11-19T14:20:09;13.10;99.90
9881;DHT22;4979;51.014;6.678;2023-11-19T14:22:45;13.00;99.90
9881;DHT22;4979;51.014;6.678;2023-11-19T14:25:14;13.00;99.90
9881;DHT22;4979;51.014;6.678;2023-11-19T14:27:41;13.10;99.90
9881;DHT22;4979;51.014;6.678;2023-11-19T14:30:09;13.10;99.90
9881;DHT22;4979;51.014;6.678;2023-11-19T14:32:36;13.10;99.90
9881;DHT22;4979;51.014;6.678;2023-11-19T14:35:02;13.20;99.90
9881;DHT22;4979;51.014;6.678;2023-11-19T14:37:29;13.20;99.90
9881;DHT22;4979;51.014;6.678;2023-11-19T14:39:59;13.20;99.90
9881;DHT22;4979;51.014;6.678;2023-11-19T14:42:26;13.10;99.90
9881;DHT22;4979;51.014;6.678;2023-11-19T14:44:52;13.10;99.90
9881;DHT22;4979;51.014;6.678;2023-11-19T14:47:18;13.00;99.90
9881;DHT22;4979;51.014;6.678;2023-11-19T14:49:44;13.00;99.90
9881;DHT22;4979;51.014;6.678;2023-11-19T14:52:10;12.90;99.90
9881;DHT22;4979;51.014;6.678;2023-11-19T14:54:36;12.90;99.90
9881;DHT22;4979;51.014;6.678;2023-11-19T14:57:02;12.80;99.90
9881;DHT22;4979;51.014;6.678;2023-11-19T14:59:28;12.80;99.90
9881;DHT22;4979;51.014;6.678;2023-11-19T15:01:54;12.80;99.90
9881;DHT22;4979;51.014;6.678;2023-11-19T15:04:20;12.80;99.90
9881;DHT22;4979;51.014;6.678;2023-11-19T15:06:45;12.80;99.90
9881;DHT22;4979;51.014;6.678;2023-11-19T15:09:11;12.80;99.90
9881;DHT22;4979;51.014;6.678;2023-11-19T15:11:42;12.80;99.90
9881;DHT22;4979;51.014;6.678;2023-11-19T15:14:08;12.80;99.90
9881;DHT22;4979;51.014;6.678;2023-11-19T15:16:33;12.70;99.90
9881;DHT22;4979;51.014;6.678;2023-11-19T15:19:00;12.70;99.90
9881;DHT22;4979;51.014;6.678;2023-11-19T15:21:29;12.60;99.90
9881;DHT22;4979;51.014;6.678;2023-11-19T15:23:55;12.60;99.90
9881;DHT22;4979;51.014;6.678;2023-11-19T15:26:21;12.60;99.90
9881;DHT22;4979;51.014;6.678;2023-11-19T15:28:47;12.60;99.90
9881;DHT22;4979;51.014;6.678;2023-11-19T15:31:12;12.50;99.90
9881;DHT22;4979;51.014;6.678;2023-11-19T15:33:40;12.50;99.90
9881;DHT22;4979;51.014;6.678;2023-11-19T15:36:06;13.60;99.90
9881;DHT22;4979;51.014;6.678;2023-11-19T15:38:36;12.40;99.90
9881;DHT22;4979;51.014;6.678;2023-11-19T15:41:01;12.40;99.90
9881;DHT22;4979;51.014;6.678;2023-11-19T15:43:30;12.30;99.90
9881;DHT22;4979;51.014;6.678;2023-11-19T15:45:56;12.30;99.90
9881;DHT22;4979;51.014;6.678;2023-11-19T15:48:22;12.30;99.90
9881;DHT22;4979;51.014;6.678;2023-11-19T15:50:47;12.20;99.90
9881;DHT22;4979;51.014;6.678;2023-11-19T15:53:13;12.20;99.90
9881;DHT22;4979;51.014;6.678;2023-11-19T15:55:38;12.10;99.90
9881;DHT22;4979;51.014;6.678;2023-11-19T15:58:04;12.10;99.90
9881;DHT22;4979;51.014;6.678;2023-11-19T16:00:30;12.00;99.90
9881;DHT22;4979;51.014;6.678;2023-11-19T16:02:57;12.00;99.90
9881;DHT22;4979;51.014;6.678;2023-11-19T16:05:22;12.00;99.90
9881;DHT22;4979;51.014;6.678;2023-11-19T16:07:49;12.00;99.90
9881;DHT22;4979;51.014;6.678;2023-11-19T16:10:15;12.00;99.90
9881;DHT22;4979;51.014;6.678;2023-11-19T16:12:45;12.10;99.90
9881;DHT22;4979;51.014;6.678;2023-11-19T16:15:11;12.10;99.90
9881;DHT22;4979;51.014;6.678;2023-11-19T16:17:36;12.10;99.90
9881;DHT22;4979;51.014;6.678;2023-11-19T16:20:04;12.10;99.90